createdAt,value
2019-05-22T00:00:34.889Z,99.90
2019-05-22T00:03:04.080Z,99.90
2019-05-22T00:05:33.907Z,99.90
2019-05-22T00:08:04.331Z,99.90
2019-05-22T00:10:34.691Z,99.90
2019-05-22T00:13:06.825Z,99.90
2019-05-22T00:15:38.586Z,99.90
2019-05-22T00:18:07.763Z,99.90
2019-05-22T00:20:37.287Z,99.90
2019-05-22T00:23:12.340Z,99.90
2019-05-22T00:25:43.450Z,99.90
2019-05-22T00:28:12.781Z,99.90
2019-05-22T00:30:45.040Z,99.90
2019-05-22T00:33:14.125Z,99.90
2019-05-22T00:35:44.697Z,99.90
2019-05-22T00:38:14.976Z,99.90
2019-05-22T00:40:47.471Z,99.90
2019-05-22T00:43:18.554Z,99.90
2019-05-22T00:45:50.457Z,99.90
2019-05-22T00:48:23.673Z,99.90
2019-05-22T00:51:09.877Z,99.90
2019-05-22T00:53:51.785Z,99.90
2019-05-22T00:56:36.226Z,99.90
2019-05-22T00:59:09.412Z,99.90
2019-05-22T01:01:45.513Z,99.90
2019-05-22T01:04:16.733Z,99.90
2019-05-22T01:06:48.453Z,99.90
2019-05-22T01:09:27.229Z,99.90
2019-05-22T01:11:56.138Z,99.90
2019-05-22T01:14:40.485Z,99.90
2019-05-22T01:16:59.635Z,99.90
2019-05-22T01:19:30.206Z,99.90
2019-05-22T01:22:01.564Z,99.90
2019-05-22T01:24:31.170Z,99.90
2019-05-22T01:27:00.380Z,99.90
2019-05-22T01:29:30.034Z,99.90
2019-05-22T01:32:06.505Z,99.90
2019-05-22T01:34:36.097Z,99.90
2019-05-22T01:37:10.213Z,99.90
2019-05-22T01:39:56.243Z,99.90
2019-05-22T01:42:32.055Z,99.90
2019-05-22T01:45:06.448Z,99.90
2019-05-22T01:47:48.498Z,99.90
2019-05-22T01:50:25.506Z,99.90
2019-05-22T01:52:55.887Z,99.90
2019-05-22T01:55:26.220Z,99.90
2019-05-22T01:57:55.694Z,99.90
2019-05-22T02:00:24.504Z,99.90
2019-05-22T02:02:53.874Z,99.90
2019-05-22T02:05:24.980Z,99.90
2019-05-22T02:07:55.653Z,99.90
2019-05-22T02:10:30.018Z,99.90
2019-05-22T02:13:02.852Z,99.90
2019-05-22T02:15:32.553Z,99.90
2019-05-22T02:18:05.878Z,99.90
2019-05-22T02:20:36.416Z,99.90
2019-05-22T02:23:06.976Z,99.90
2019-05-22T02:25:37.721Z,99.90
2019-05-22T02:28:07.128Z,99.90
2019-05-22T02:30:38.138Z,99.90
2019-05-22T02:33:08.683Z,99.90
2019-05-22T02:35:39.357Z,99.90
2019-05-22T02:38:09.590Z,99.90
2019-05-22T02:40:41.791Z,99.90
2019-05-22T02:43:11.666Z,99.90
2019-05-22T02:45:41.775Z,99.90
2019-05-22T02:48:11.924Z,99.90
2019-05-22T02:50:41.959Z,99.90
2019-05-22T02:53:13.627Z,99.90
2019-05-22T02:55:43.082Z,99.90
2019-05-22T02:58:12.980Z,99.90
2019-05-22T03:00:59.219Z,99.90
2019-05-22T03:03:28.799Z,99.90
2019-05-22T03:05:58.666Z,99.90
2019-05-22T03:08:34.314Z,99.90
2019-05-22T03:11:03.872Z,99.90
2019-05-22T03:13:59.545Z,99.90
2019-05-22T03:16:30.867Z,99.90
2019-05-22T03:19:08.904Z,99.90
2019-05-22T03:21:31.648Z,99.90
2019-05-22T03:24:00.794Z,99.90
2019-05-22T03:26:39.631Z,99.90
2019-05-22T03:29:10.726Z,99.90
2019-05-22T03:31:39.825Z,99.90
2019-05-22T03:34:10.377Z,99.90
2019-05-22T03:36:39.417Z,99.90
2019-05-22T03:39:08.913Z,99.90
2019-05-22T03:41:37.997Z,99.90
2019-05-22T03:44:07.909Z,99.90
2019-05-22T03:46:42.994Z,99.90
2019-05-22T03:49:29.241Z,99.90
2019-05-22T03:51:46.945Z,99.90
2019-05-22T03:54:16.350Z,99.90
2019-05-22T03:56:46.478Z,99.90
2019-05-22T03:59:15.862Z,99.90
2019-05-22T04:01:45.714Z,99.90
2019-05-22T04:04:19.966Z,99.90
2019-05-22T04:06:52.213Z,99.90
2019-05-22T04:09:25.221Z,99.90
2019-05-22T04:11:54.970Z,99.90
2019-05-22T04:14:32.441Z,99.90
2019-05-22T04:17:03.067Z,99.90
2019-05-22T04:19:47.309Z,99.90
2019-05-22T04:22:07.139Z,99.90
2019-05-22T04:24:36.380Z,99.90
2019-05-22T04:27:07.506Z,99.90
2019-05-22T04:29:37.118Z,99.90
2019-05-22T04:32:15.564Z,99.90
2019-05-22T04:34:45.553Z,99.90
2019-05-22T04:37:15.600Z,99.90
2019-05-22T04:39:48.247Z,99.90
2019-05-22T04:42:18.209Z,99.90
2019-05-22T04:45:09.882Z,99.90
2019-05-22T04:47:39.898Z,99.90
2019-05-22T04:50:10.730Z,99.90
2019-05-22T04:52:39.744Z,99.90
2019-05-22T04:55:11.204Z,99.90
2019-05-22T04:57:40.887Z,99.90
2019-05-22T05:00:13.138Z,99.90
2019-05-22T05:02:42.065Z,99.90
2019-05-22T05:05:12.417Z,99.90
2019-05-22T05:07:41.590Z,99.90
2019-05-22T05:10:11.232Z,99.90
2019-05-22T05:12:42.239Z,99.90
2019-05-22T05:15:11.393Z,99.90
2019-05-22T05:17:40.639Z,99.90
2019-05-22T05:20:22.190Z,99.90
2019-05-22T05:22:43.366Z,99.90
2019-05-22T05:25:12.461Z,99.90
2019-05-22T05:27:41.601Z,99.90
2019-05-22T05:30:11.390Z,99.90
2019-05-22T05:32:40.748Z,99.90
2019-05-22T05:35:10.177Z,99.90
2019-05-22T05:37:41.213Z,99.90
2019-05-22T05:40:33.544Z,99.90
2019-05-22T05:43:03.541Z,99.90
2019-05-22T05:45:33.718Z,99.90
2019-05-22T05:48:05.964Z,99.90
2019-05-22T05:50:40.002Z,99.90
2019-05-22T05:53:14.552Z,99.90
2019-05-22T05:56:13.440Z,99.90
2019-05-22T05:58:42.520Z,99.90
2019-05-22T06:01:23.199Z,99.90
2019-05-22T06:03:52.900Z,99.90
2019-05-22T06:07:13.633Z,99.90
2019-05-22T06:09:42.681Z,99.90
2019-05-22T06:12:12.949Z,99.90
2019-05-22T06:14:42.023Z,99.90
2019-05-22T06:17:52.353Z,99.90
2019-05-22T06:20:21.618Z,99.90
2019-05-22T06:23:50.525Z,99.90
2019-05-22T06:27:21.940Z,99.90
2019-05-22T06:30:00.234Z,99.90
2019-05-22T06:33:19.378Z,99.90
2019-05-22T06:35:50.494Z,99.90
2019-05-22T06:38:47.591Z,99.90
2019-05-22T06:41:16.947Z,99.90
2019-05-22T06:44:39.648Z,99.90
2019-05-22T06:47:11.321Z,99.90
2019-05-22T06:49:52.676Z,99.90
2019-05-22T06:52:21.945Z,98.50
2019-05-22T06:54:52.032Z,99.90
2019-05-22T06:57:29.425Z,99.90
2019-05-22T07:00:12.300Z,98.50
2019-05-22T07:02:31.714Z,99.90
2019-05-22T07:05:00.881Z,98.60
2019-05-22T07:07:29.943Z,99.30
2019-05-22T07:09:59.284Z,98.80
2019-05-22T07:12:31.293Z,98.30
2019-05-22T07:15:23.089Z,98.60
2019-05-22T07:17:55.639Z,99.10
2019-05-22T07:20:27.295Z,97.60
2019-05-22T07:22:57.805Z,98.40
2019-05-22T07:25:27.980Z,96.80
2019-05-22T07:27:58.673Z,98.00
2019-05-22T07:30:28.070Z,97.60
2019-05-22T07:32:57.149Z,96.60
2019-05-22T07:35:44.111Z,91.50
2019-05-22T07:37:57.945Z,85.80
2019-05-22T07:40:27.281Z,85.10
2019-05-22T07:42:56.810Z,82.10
2019-05-22T07:45:27.152Z,75.90
2019-05-22T07:47:57.237Z,77.00
2019-05-22T07:50:28.475Z,74.60
2019-05-22T07:52:57.990Z,74.30
2019-05-22T07:55:29.167Z,73.00
2019-05-22T07:58:17.522Z,71.40
2019-05-22T08:00:51.604Z,71.40
2019-05-22T08:03:21.465Z,72.00
2019-05-22T08:05:54.828Z,71.90
2019-05-22T08:08:24.882Z,72.20
2019-05-22T08:10:55.182Z,70.60
2019-05-22T08:13:24.441Z,67.80
2019-05-22T08:15:53.658Z,64.90
2019-05-22T08:18:22.535Z,63.60
2019-05-22T08:20:51.792Z,66.20
2019-05-22T08:23:21.232Z,68.30
2019-05-22T08:25:50.964Z,69.10
2019-05-22T08:28:21.047Z,70.80
2019-05-22T08:30:50.901Z,68.20
2019-05-22T08:33:22.369Z,71.30
2019-05-22T08:35:51.325Z,72.20
2019-05-22T08:38:28.662Z,69.20
2019-05-22T08:40:59.969Z,68.90
2019-05-22T08:43:30.960Z,70.00
2019-05-22T08:46:00.415Z,68.40
2019-05-22T08:48:30.407Z,67.60
2019-05-22T08:51:00.021Z,65.50
2019-05-22T08:53:44.356Z,65.40
2019-05-22T08:56:00.640Z,67.60
2019-05-22T08:58:29.970Z,69.10
2019-05-22T09:00:59.373Z,68.20
2019-05-22T09:03:28.961Z,69.00
2019-05-22T09:05:58.118Z,66.90
2019-05-22T09:08:27.149Z,68.60
2019-05-22T09:10:56.624Z,65.50
2019-05-22T09:13:26.345Z,62.20
2019-05-22T09:15:55.985Z,60.60
2019-05-22T09:18:25.066Z,58.60
2019-05-22T09:20:54.145Z,59.20
2019-05-22T09:23:23.456Z,59.70
2019-05-22T09:25:52.538Z,59.00
2019-05-22T09:28:21.533Z,57.20
2019-05-22T09:30:50.731Z,57.20
2019-05-22T09:33:20.319Z,58.80
2019-05-22T09:35:49.937Z,57.00
2019-05-22T09:38:19.352Z,54.10
2019-05-22T09:40:48.418Z,51.50
2019-05-22T09:43:17.219Z,52.50
2019-05-22T09:45:46.097Z,51.20
2019-05-22T09:48:15.422Z,51.30
2019-05-22T09:50:44.700Z,50.40
2019-05-22T09:53:13.654Z,53.40
2019-05-22T09:55:46.913Z,53.40
2019-05-22T09:58:13.675Z,52.30
2019-05-22T10:00:42.545Z,52.90
2019-05-22T10:03:11.945Z,53.70
2019-05-22T10:05:41.312Z,52.90
2019-05-22T10:08:10.324Z,52.80
2019-05-22T10:10:39.734Z,51.60
2019-05-22T10:13:08.897Z,51.80
2019-05-22T10:15:39.157Z,51.70
2019-05-22T10:18:08.549Z,50.20
2019-05-22T10:20:37.588Z,50.20
2019-05-22T10:23:15.593Z,50.20
2019-05-22T10:25:38.433Z,51.10
2019-05-22T10:28:08.336Z,49.60
2019-05-22T10:30:37.816Z,50.00
2019-05-22T10:33:06.866Z,51.00
2019-05-22T10:35:37.226Z,50.40
2019-05-22T10:38:07.190Z,51.50
2019-05-22T10:40:36.172Z,52.20
2019-05-22T10:43:05.232Z,49.30
2019-05-22T10:45:34.622Z,50.60
2019-05-22T10:48:03.615Z,49.30
2019-05-22T10:50:32.840Z,49.60
2019-05-22T10:53:02.323Z,50.20
2019-05-22T10:55:31.757Z,50.50
2019-05-22T10:58:00.810Z,49.90
2019-05-22T11:00:30.880Z,47.20
2019-05-22T11:02:59.921Z,47.80
2019-05-22T11:05:28.974Z,48.40
2019-05-22T11:07:57.929Z,48.60
2019-05-22T11:10:27.490Z,48.20
2019-05-22T11:12:57.088Z,47.60
2019-05-22T11:15:26.853Z,48.10
2019-05-22T11:17:56.864Z,47.40
2019-05-22T11:20:26.294Z,48.10
2019-05-22T11:22:55.918Z,48.00
2019-05-22T11:25:25.010Z,47.90
2019-05-22T11:27:54.868Z,48.20
2019-05-22T11:30:24.721Z,46.70
2019-05-22T11:32:54.579Z,47.60
2019-05-22T11:35:23.869Z,47.50
2019-05-22T11:37:53.039Z,47.40
2019-05-22T11:40:22.641Z,45.80
2019-05-22T11:42:52.778Z,45.00
2019-05-22T11:45:22.484Z,45.70
2019-05-22T11:47:52.317Z,47.00
2019-05-22T11:50:23.405Z,48.20
2019-05-22T11:52:52.684Z,48.50
2019-05-22T11:55:21.656Z,50.00
2019-05-22T11:57:51.548Z,48.70
2019-05-22T12:00:21.308Z,47.70
2019-05-22T12:02:51.439Z,48.90
2019-05-22T12:05:21.809Z,46.80
2019-05-22T12:07:51.537Z,49.00
2019-05-22T12:10:21.978Z,48.90
2019-05-22T12:12:52.730Z,46.30
2019-05-22T12:15:23.941Z,46.70
2019-05-22T12:17:53.474Z,46.10
2019-05-22T12:20:22.925Z,44.70
2019-05-22T12:22:51.909Z,46.00
2019-05-22T12:25:21.041Z,47.00
2019-05-22T12:27:50.367Z,45.70
2019-05-22T12:30:20.230Z,45.60
2019-05-22T12:32:49.971Z,45.60
2019-05-22T12:35:19.320Z,45.50
2019-05-22T12:37:48.691Z,45.00
2019-05-22T12:40:20.137Z,45.10
2019-05-22T12:42:49.718Z,45.80
2019-05-22T12:45:24.939Z,44.40
2019-05-22T12:47:55.142Z,44.70
2019-05-22T12:50:28.284Z,45.10
2019-05-22T12:52:57.772Z,47.40
2019-05-22T12:55:27.113Z,46.10
2019-05-22T12:57:56.363Z,45.70
2019-05-22T13:00:28.378Z,45.80
2019-05-22T13:02:58.563Z,41.50
2019-05-22T13:05:28.393Z,40.80
2019-05-22T13:07:58.408Z,42.70
2019-05-22T13:10:27.938Z,44.70
2019-05-22T13:12:57.192Z,44.70
2019-05-22T13:15:26.475Z,46.90
2019-05-22T13:17:55.736Z,45.90
2019-05-22T13:20:42.071Z,44.70
2019-05-22T13:22:58.057Z,45.00
2019-05-22T13:25:32.641Z,45.10
2019-05-22T13:28:02.989Z,46.00
2019-05-22T13:30:35.354Z,46.40
2019-05-22T13:33:04.865Z,44.50
2019-05-22T13:35:34.858Z,44.70
2019-05-22T13:38:04.494Z,42.20
2019-05-22T13:40:34.538Z,40.00
2019-05-22T13:43:04.328Z,39.20
2019-05-22T13:45:33.469Z,37.50
2019-05-22T13:48:02.362Z,37.50
2019-05-22T13:50:31.775Z,34.90
2019-05-22T13:53:02.675Z,33.80
2019-05-22T13:55:32.540Z,32.50
2019-05-22T13:58:01.984Z,32.30
2019-05-22T14:00:31.415Z,31.90
2019-05-22T14:03:00.823Z,31.80
2019-05-22T14:05:31.117Z,31.00
2019-05-22T14:08:00.642Z,33.00
2019-05-22T14:10:30.350Z,33.00
2019-05-22T14:12:59.285Z,31.20
2019-05-22T14:15:47.443Z,30.10
2019-05-22T14:17:59.816Z,30.90
2019-05-22T14:20:28.892Z,31.50
2019-05-22T14:22:57.985Z,32.20
2019-05-22T14:25:27.947Z,31.20
2019-05-22T14:27:57.158Z,29.30
2019-05-22T14:30:27.839Z,31.40
2019-05-22T14:32:58.408Z,33.10
2019-05-22T14:35:46.901Z,33.40
2019-05-22T14:38:01.909Z,35.30
2019-05-22T14:40:32.617Z,32.90
2019-05-22T14:43:01.826Z,32.20
2019-05-22T14:45:30.716Z,33.60
2019-05-22T14:47:59.702Z,32.90
2019-05-22T14:50:32.580Z,34.20
2019-05-22T14:53:00.437Z,35.90
2019-05-22T14:55:31.632Z,37.30
2019-05-22T14:58:01.475Z,37.20
2019-05-22T15:00:31.209Z,38.80
2019-05-22T15:03:01.582Z,37.50
2019-05-22T15:05:31.166Z,37.00
2019-05-22T15:08:00.163Z,36.60
2019-05-22T15:10:30.317Z,38.70
2019-05-22T15:12:59.540Z,40.20
2019-05-22T15:15:28.859Z,41.30
2019-05-22T15:17:58.623Z,42.80
2019-05-22T15:20:37.173Z,41.70
2019-05-22T15:23:07.310Z,41.60
2019-05-22T15:25:36.765Z,39.80
2019-05-22T15:28:06.338Z,38.70
2019-05-22T15:30:35.494Z,37.00
2019-05-22T15:33:04.725Z,34.30
2019-05-22T15:35:34.461Z,34.60
2019-05-22T15:38:04.564Z,34.70
2019-05-22T15:40:34.788Z,33.60
2019-05-22T15:43:05.889Z,32.40
2019-05-22T15:45:35.694Z,32.30
2019-05-22T15:48:08.009Z,33.00
2019-05-22T15:50:38.844Z,32.30
2019-05-22T15:53:13.350Z,31.00
2019-05-22T15:55:42.565Z,32.00
2019-05-22T15:58:13.214Z,33.60
2019-05-22T16:00:44.459Z,33.30
2019-05-22T16:03:16.687Z,42.20
2019-05-22T16:05:46.707Z,42.20
2019-05-22T16:08:16.369Z,43.90
2019-05-22T16:10:48.189Z,42.10
2019-05-22T16:13:20.132Z,35.60
2019-05-22T16:15:52.081Z,33.50
2019-05-22T16:18:24.372Z,30.90
2019-05-22T16:20:54.558Z,31.50
2019-05-22T16:23:24.580Z,29.60
2019-05-22T16:25:53.894Z,29.40
2019-05-22T16:28:23.555Z,31.00
2019-05-22T16:30:53.406Z,30.90
2019-05-22T16:33:23.646Z,29.80
2019-05-22T16:35:52.818Z,31.10
2019-05-22T16:38:23.870Z,41.10
2019-05-22T16:40:53.028Z,42.00
2019-05-22T16:43:22.653Z,42.00
2019-05-22T16:45:52.483Z,49.70
2019-05-22T16:48:28.884Z,48.00
2019-05-22T16:50:53.553Z,49.80
2019-05-22T16:53:25.037Z,39.40
2019-05-22T16:55:56.205Z,40.80
2019-05-22T16:58:25.977Z,45.00
2019-05-22T17:00:56.934Z,48.20
2019-05-22T17:03:27.997Z,50.30
2019-05-22T17:05:57.911Z,52.20
2019-05-22T17:08:28.757Z,52.60
2019-05-22T17:10:58.477Z,54.00
2019-05-22T17:13:28.400Z,55.70
2019-05-22T17:15:57.660Z,56.70
2019-05-22T17:18:27.957Z,58.10
2019-05-22T17:20:58.843Z,59.00
2019-05-22T17:23:28.168Z,61.10
2019-05-22T17:25:58.006Z,59.50
2019-05-22T17:28:27.701Z,60.00
2019-05-22T17:30:57.860Z,59.50
2019-05-22T17:33:27.020Z,58.70
2019-05-22T17:35:56.902Z,63.30
2019-05-22T17:38:27.038Z,64.60
2019-05-22T17:40:56.270Z,66.60
2019-05-22T17:43:26.406Z,68.00
2019-05-22T17:45:57.437Z,67.90
2019-05-22T17:48:27.350Z,71.00
2019-05-22T17:50:56.581Z,72.40
2019-05-22T17:53:27.277Z,74.30
2019-05-22T17:55:57.030Z,77.10
2019-05-22T17:58:29.952Z,77.70
2019-05-22T18:00:57.915Z,80.60
2019-05-22T18:03:27.156Z,84.10
2019-05-22T18:05:56.860Z,86.90
2019-05-22T18:08:27.375Z,89.00
2019-05-22T18:10:57.131Z,91.30
2019-05-22T18:13:26.560Z,92.70
2019-05-22T18:15:55.843Z,93.80
2019-05-22T18:18:24.737Z,94.90
2019-05-22T18:20:54.196Z,95.70
2019-05-22T18:23:23.158Z,96.60
2019-05-22T18:25:51.967Z,97.90
2019-05-22T18:28:22.345Z,98.70
2019-05-22T18:30:51.297Z,98.90
2019-05-22T18:33:20.237Z,98.70
2019-05-22T18:35:49.109Z,98.90
2019-05-22T18:38:18.269Z,99.40
2019-05-22T18:40:47.542Z,99.80
2019-05-22T18:43:18.805Z,99.90
2019-05-22T18:45:47.413Z,99.90
2019-05-22T18:48:16.546Z,99.90
2019-05-22T18:50:45.404Z,99.90
2019-05-22T18:53:14.754Z,99.90
2019-05-22T18:55:43.557Z,99.90
2019-05-22T18:58:12.730Z,99.90
2019-05-22T19:00:42.062Z,99.90
2019-05-22T19:03:11.467Z,99.90
2019-05-22T19:05:40.428Z,99.90
2019-05-22T19:08:09.704Z,99.90
2019-05-22T19:10:38.967Z,99.90
2019-05-22T19:13:08.510Z,99.90
2019-05-22T19:15:37.416Z,99.90
2019-05-22T19:18:06.663Z,99.90
2019-05-22T19:20:36.309Z,99.90
2019-05-22T19:23:05.918Z,99.90
2019-05-22T19:25:34.752Z,99.90
2019-05-22T19:28:04.321Z,99.90
2019-05-22T19:30:33.698Z,99.90
2019-05-22T19:33:03.665Z,99.90
2019-05-22T19:35:32.918Z,99.90
2019-05-22T19:38:01.887Z,99.90
2019-05-22T19:40:31.429Z,99.90
2019-05-22T19:43:00.557Z,99.90
2019-05-22T19:45:30.981Z,99.90
2019-05-22T19:48:01.021Z,99.90
2019-05-22T19:50:31.308Z,99.90
2019-05-22T19:53:17.597Z,99.90
2019-05-22T19:55:32.417Z,99.90
2019-05-22T19:58:01.549Z,99.90
2019-05-22T20:00:31.526Z,99.90
2019-05-22T20:03:00.886Z,99.90
2019-05-22T20:05:30.405Z,99.90
2019-05-22T20:07:59.803Z,99.90
2019-05-22T20:10:28.790Z,99.90
2019-05-22T20:12:58.752Z,99.90
2019-05-22T20:15:27.811Z,99.90
2019-05-22T20:17:57.390Z,99.90
2019-05-22T20:20:27.180Z,99.90
2019-05-22T20:22:56.328Z,99.90
2019-05-22T20:25:25.740Z,99.90
2019-05-22T20:27:56.312Z,99.90
2019-05-22T20:30:26.929Z,99.90
2019-05-22T20:32:56.137Z,99.90
2019-05-22T20:35:26.294Z,99.90
2019-05-22T20:37:59.705Z,99.90
2019-05-22T20:40:27.490Z,99.90
2019-05-22T20:42:56.482Z,99.90
2019-05-22T20:45:27.587Z,99.90
2019-05-22T20:48:11.829Z,99.90
2019-05-22T20:50:41.669Z,99.90
2019-05-22T20:53:12.597Z,99.90
2019-05-22T20:55:42.529Z,99.90
2019-05-22T20:58:13.380Z,99.90
2019-05-22T21:00:43.413Z,99.90
2019-05-22T21:03:12.983Z,99.90
2019-05-22T21:05:43.379Z,99.90
2019-05-22T21:08:13.338Z,99.90
2019-05-22T21:10:44.508Z,99.90
2019-05-22T21:13:14.921Z,99.90
2019-05-22T21:15:44.881Z,99.90
2019-05-22T21:18:14.258Z,99.90
2019-05-22T21:20:54.342Z,99.90
2019-05-22T21:23:16.734Z,99.90
2019-05-22T21:25:46.181Z,99.90
2019-05-22T21:28:15.259Z,99.90
2019-05-22T21:30:44.236Z,99.90
2019-05-22T21:33:14.737Z,99.90
2019-05-22T21:35:44.015Z,99.90
2019-05-22T21:38:14.081Z,99.90
2019-05-22T21:40:43.476Z,99.90
2019-05-22T21:43:13.577Z,99.90
2019-05-22T21:45:43.030Z,99.90
2019-05-22T21:48:12.095Z,99.90
2019-05-22T21:50:41.101Z,99.90
2019-05-22T21:53:12.446Z,99.90
2019-05-22T21:55:45.522Z,99.90
2019-05-22T21:58:13.632Z,99.90
2019-05-22T22:01:02.318Z,99.90
2019-05-22T22:03:37.821Z,99.90
2019-05-22T22:06:06.992Z,99.90
2019-05-22T22:08:36.522Z,99.90
2019-05-22T22:11:05.609Z,99.90
2019-05-22T22:13:34.937Z,99.90
2019-05-22T22:16:03.900Z,99.90
2019-05-22T22:18:33.355Z,99.90
2019-05-22T22:21:02.738Z,99.90
2019-05-22T22:23:31.977Z,99.90
2019-05-22T22:26:01.442Z,99.90
2019-05-22T22:28:30.779Z,99.90
2019-05-22T22:31:04.030Z,99.90
2019-05-22T22:33:34.968Z,99.90
2019-05-22T22:36:05.718Z,99.90
2019-05-22T22:38:37.538Z,99.90
2019-05-22T22:41:09.139Z,99.90
2019-05-22T22:43:40.772Z,99.90
2019-05-22T22:46:21.212Z,99.90
2019-05-22T22:48:53.102Z,99.90
2019-05-22T22:51:24.560Z,99.90
2019-05-22T22:53:55.770Z,99.90
2019-05-22T22:56:25.665Z,99.90
2019-05-22T22:58:54.558Z,99.90
2019-05-22T23:01:30.554Z,99.90
2019-05-22T23:04:03.638Z,99.90
2019-05-22T23:06:36.106Z,99.90
2019-05-22T23:09:07.123Z,99.90
2019-05-22T23:11:37.628Z,99.90
2019-05-22T23:14:07.866Z,99.90
2019-05-22T23:16:37.500Z,99.90
2019-05-22T23:19:40.853Z,99.90
2019-05-22T23:22:24.064Z,99.90
2019-05-22T23:24:55.839Z,99.90
2019-05-22T23:27:24.923Z,99.90
2019-05-22T23:29:56.239Z,99.90
2019-05-22T23:32:25.577Z,99.90
2019-05-22T23:34:56.669Z,99.90
2019-05-22T23:37:27.769Z,99.90
2019-05-22T23:39:56.933Z,99.90
2019-05-22T23:42:31.267Z,99.90
2019-05-22T23:45:02.663Z,99.90
2019-05-22T23:47:32.191Z,99.90
2019-05-22T23:50:01.581Z,99.90
2019-05-22T23:52:30.940Z,99.90
2019-05-22T23:55:03.998Z,99.90
2019-05-22T23:57:33.793Z,99.90
